Pagina principale
METAR-TAF:

METAR-TAF

Aeroporti :

Wiener Neustadt, Austria

latitudine: 47-50-36N, longitudine: 016-15-29E, altezza: 272 m

Osservazione

Il bollettino è stato emesso 58 minuti fa, alle 14:00 UTC
Vento 7 kt da sud-est
Temperature
Pressione
Visibilità 10 km o più
Poco nuvoloso ad un'altezza di 3000 ft

METAR: LOAN 171400Z 13007KT 9999 FEW030

Ora: 16:58 (14:58 UTC)

Previsione

Il bollettino è stato emesso 3 ore e 43 minuti fa, alle 11:15 UTC
Previsione valida dal 17 alle 12 UTC al 17 alle 21 UTC
Vento 6 kt da est
Visibilità 10 km o più
Poco nuvoloso ad un'altezza di 5000 ft
Probabilità 40% :
Temporaneamente
dal 17 alle 14 UTC al 17 alle 17 UTC
Poco nuvoloso ad un'altezza di 5000 ft, Cumulonembo.

TAF: LOAN 171115Z 1712/1721 10006KT 9999 FEW050 PROB40 TEMPO 1714/1717 FEW050CB

Osservazioni e previsioni meteorologiche di più di 4000 aeroporti (messaggi METAR e TAF).

Le stazioni disponibili sono rappresentate dai dischi gialli e rossi sulla carta.

Puntare il mouse per vedere il nome della stazione.

Clicca sopra per visualizzare le osservazioni e previsioni meteorologiche.

Per cambiare la mappa : fare clic sui pulsanti verdi con una croce nera per ingrandire, il pulsante verde con un trattino per diminuire, o sulla freccia verde per le mappe adiacenti.


METAR-TAF: